Time;durP1;ratioP1;P1;durP2;ratioP2;P2;SDS_P1;SDS_P2;PMS_P1;PMS_P2;Temp;Humidity;BMP_temperature;BMP_pressure;BME280_temperature;BME280_humidity;BME280_pressure;Samples;Min_cycle;Max_cycle;Signal;HPM_P1;HPM_P2
2022/03/25 00:02:14;;;;;;;89.82;39.72;;;6.30;99.90;;;;;;5068375;28;20021;-59
2022/03/25 00:04:40;;;;;;;89.22;39.30;;;6.30;99.90;;;;;;5071082;28;20100;-59
2022/03/25 00:07:07;;;;;;;92.38;40.35;;;6.30;99.90;;;;;;5071185;28;20036;-59
2022/03/25 00:09:33;;;;;;;91.55;42.97;;;6.20;99.90;;;;;;5066515;28;20031;-61
2022/03/25 00:11:58;;;;;;;85.95;40.13;;;6.10;99.90;;;;;;5071361;28;20024;-59
2022/03/25 00:14:24;;;;;;;80.13;37.60;;;6.00;99.90;;;;;;5070389;28;20037;-60
2022/03/25 00:16:49;;;;;;;83.90;37.58;;;6.10;99.90;;;;;;5071039;28;20044;-56
2022/03/25 00:19:15;;;;;;;89.65;39.40;;;6.00;99.90;;;;;;5070343;28;20025;-59
2022/03/25 00:21:41;;;;;;;86.85;40.80;;;6.00;99.90;;;;;;5070627;28;20025;-58
2022/03/25 00:24:07;;;;;;;90.47;40.35;;;6.00;99.90;;;;;;5071502;28;20068;-55
2022/03/25 00:26:32;;;;;;;95.25;44.33;;;6.00;99.90;;;;;;5070784;28;20081;-59
2022/03/25 00:28:58;;;;;;;92.30;40.78;;;5.90;99.90;;;;;;5070069;28;20029;-59
2022/03/25 00:31:23;;;;;;;91.22;41.67;;;5.80;99.90;;;;;;5070406;28;20428;-59
2022/03/25 00:33:49;;;;;;;91.10;42.15;;;5.60;99.90;;;;;;5069979;28;20159;-59
2022/03/25 00:36:19;;;;;;;88.80;38.92;;;5.50;99.90;;;;;;5069863;28;20111;-60
2022/03/25 00:38:45;;;;;;;91.10;39.85;;;5.30;99.90;;;;;;5070013;28;20036;-60
2022/03/25 00:41:12;;;;;;;90.15;40.47;;;5.10;99.90;;;;;;5070789;28;20574;-59
2022/03/25 00:43:38;;;;;;;93.85;42.53;;;5.10;99.90;;;;;;5070022;28;20604;-60
2022/03/25 00:46:04;;;;;;;88.20;39.55;;;5.10;99.90;;;;;;5070649;28;20414;-60
2022/03/25 00:48:30;;;;;;;93.28;42.38;;;5.10;99.90;;;;;;5069888;28;20414;-58
2022/03/25 00:50:55;;;;;;;90.28;41.30;;;5.10;99.90;;;;;;5066665;28;20040;-61
2022/03/25 00:53:21;;;;;;;99.93;44.00;;;5.10;99.90;;;;;;5071030;28;20043;-59
2022/03/25 00:55:47;;;;;;;98.88;43.83;;;5.10;99.90;;;;;;5070299;28;20116;-57
2022/03/25 00:58:14;;;;;;;91.65;41.70;;;5.20;99.90;;;;;;5070458;28;20111;-58
2022/03/25 01:00:41;;;;;;;93.40;41.80;;;5.20;99.90;;;;;;5069520;28;20101;-60
2022/03/25 01:03:07;;;;;;;95.10;43.35;;;5.30;99.90;;;;;;5069067;28;20020;-57
2022/03/25 01:05:33;;;;;;;104.03;44.47;;;5.30;99.90;;;;;;5069405;28;20043;-57
2022/03/25 01:07:59;;;;;;;91.57;39.83;;;5.20;99.90;;;;;;5070313;28;20553;-59
2022/03/25 01:10:25;;;;;;;97.60;41.67;;;5.20;99.90;;;;;;5069165;28;20136;-56
2022/03/25 01:12:50;;;;;;;99.82;39.80;;;5.10;99.90;;;;;;5065131;28;20032;-59
2022/03/25 01:15:16;;;;;;;92.35;42.50;;;5.10;99.90;;;;;;5067915;28;20127;-61
2022/03/25 01:17:41;;;;;;;92.05;41.22;;;5.10;99.90;;;;;;5069752;28;20029;-62
2022/03/25 01:20:09;;;;;;;96.72;41.40;;;5.10;99.90;;;;;;5069728;28;20092;-58
2022/03/25 01:22:34;;;;;;;89.60;41.40;;;5.00;99.90;;;;;;5068053;28;20025;-57
2022/03/25 01:25:01;;;;;;;96.15;42.65;;;4.80;99.90;;;;;;5066889;28;20034;-56
2022/03/25 01:27:26;;;;;;;88.25;39.35;;;4.70;99.90;;;;;;5068609;28;20036;-58
2022/03/25 01:29:52;;;;;;;93.35;41.88;;;4.70;99.90;;;;;;5069868;28;20082;-57
2022/03/25 01:32:17;;;;;;;102.68;42.90;;;4.70;99.90;;;;;;5068255;28;20040;-59
2022/03/25 01:34:43;;;;;;;105.50;44.17;;;4.80;99.90;;;;;;5069453;28;20081;-57
2022/03/25 01:37:09;;;;;;;96.90;43.47;;;4.90;99.90;;;;;;5069521;28;20032;-58
2022/03/25 01:39:35;;;;;;;98.60;43.90;;;5.00;99.90;;;;;;5069095;28;20032;-59
2022/03/25 01:42:00;;;;;;;90.35;42.55;;;5.00;99.90;;;;;;5068675;28;20458;-57
2022/03/25 01:44:28;;;;;;;96.88;44.58;;;5.00;99.90;;;;;;5068596;28;20020;-60
2022/03/25 01:46:55;;;;;;;103.10;45.35;;;5.00;99.90;;;;;;5068419;28;20662;-56
2022/03/25 01:49:22;;;;;;;91.93;44.00;;;5.00;99.90;;;;;;5069144;28;20525;-59
2022/03/25 01:51:53;;;;;;;95.60;44.65;;;5.00;99.90;;;;;;5066141;28;20208;-58
2022/03/25 01:54:19;;;;;;;107.70;44.28;;;5.00;99.90;;;;;;5068365;28;20029;-57
2022/03/25 01:56:44;;;;;;;100.47;44.00;;;4.90;99.90;;;;;;5070026;28;20111;-58
2022/03/25 01:59:10;;;;;;;107.55;46.63;;;4.80;99.90;;;;;;5070424;28;20036;-57
2022/03/25 02:01:36;;;;;;;101.00;44.78;;;4.70;99.90;;;;;;5065386;28;20055;-54
2022/03/25 02:04:02;;;;;;;95.57;43.70;;;4.60;99.90;;;;;;5069201;28;20569;-57
2022/03/25 02:06:27;;;;;;;98.88;43.88;;;4.60;99.90;;;;;;5070027;28;20033;-59
2022/03/25 02:08:53;;;;;;;104.25;44.00;;;4.60;99.90;;;;;;5062496;28;20394;-58
2022/03/25 02:11:19;;;;;;;102.20;42.60;;;4.50;99.90;;;;;;5068948;28;20063;-54
2022/03/25 02:13:45;;;;;;;106.13;45.92;;;4.50;99.90;;;;;;5068863;28;20104;-57
2022/03/25 02:16:10;;;;;;;107.88;45.30;;;4.50;99.90;;;;;;5067917;28;20090;-54
2022/03/25 02:18:36;;;;;;;102.63;47.33;;;4.50;99.90;;;;;;5069132;28;20028;-58
2022/03/25 02:21:01;;;;;;;106.07;48.90;;;4.50;99.90;;;;;;5068225;28;20021;-58
2022/03/25 02:23:27;;;;;;;98.80;46.05;;;4.60;99.90;;;;;;5068813;28;20430;-54
2022/03/25 02:25:54;;;;;;;102.05;46.10;;;4.70;99.90;;;;;;5068146;28;20052;-57
2022/03/25 02:28:20;;;;;;;109.38;44.80;;;4.60;99.90;;;;;;5069615;28;20048;-58
2022/03/25 02:30:46;;;;;;;97.53;45.17;;;4.60;99.90;;;;;;5067414;28;20032;-55
2022/03/25 02:33:12;;;;;;;102.03;46.50;;;4.40;99.90;;;;;;5068768;28;20402;-56
2022/03/25 02:35:39;;;;;;;102.57;44.67;;;4.20;99.90;;;;;;5068473;28;20070;-60
2022/03/25 02:38:06;;;;;;;109.10;48.30;;;4.00;99.90;;;;;;5068502;28;20111;-58
2022/03/25 02:40:32;;;;;;;108.40;46.90;;;3.90;99.90;;;;;;5071522;28;20064;-54
2022/03/25 02:42:57;;;;;;;104.32;45.55;;;3.80;99.90;;;;;;5072681;28;20044;-60
2022/03/25 02:45:23;;;;;;;109.93;47.13;;;3.80;99.90;;;;;;5072364;28;20047;-58
2022/03/25 02:47:48;;;;;;;111.65;49.28;;;4.00;99.90;;;;;;5072630;28;20036;-54
2022/03/25 02:50:14;;;;;;;107.78;47.17;;;4.10;99.90;;;;;;5072243;28;20103;-55
2022/03/25 02:52:41;;;;;;;100.50;45.60;;;4.10;99.90;;;;;;5072775;28;20499;-59
2022/03/25 02:55:08;;;;;;;107.72;47.25;;;4.20;99.90;;;;;;5072208;28;20056;-59
2022/03/25 02:57:34;;;;;;;110.10;44.72;;;4.10;99.90;;;;;;5072492;28;20027;-59
2022/03/25 03:00:00;;;;;;;106.22;47.35;;;3.90;99.90;;;;;;5071425;28;20562;-60
2022/03/25 03:02:26;;;;;;;115.68;49.42;;;3.80;99.90;;;;;;5072444;28;20024;-56
2022/03/25 03:04:51;;;;;;;104.47;44.20;;;3.70;99.90;;;;;;5072040;28;20490;-54
2022/03/25 03:07:18;;;;;;;100.15;44.35;;;3.60;99.90;;;;;;5069145;28;20028;-57
2022/03/25 03:09:44;;;;;;;101.75;45.72;;;3.50;99.90;;;;;;5070232;28;20036;-55
2022/03/25 03:12:10;;;;;;;113.93;49.08;;;3.50;99.90;;;;;;5072188;28;20033;-58
2022/03/25 03:14:36;;;;;;;101.70;44.67;;;3.50;99.90;;;;;;5071930;28;20103;-58
2022/03/25 03:17:04;;;;;;;112.22;46.60;;;3.60;99.90;;;;;;5070383;28;20029;-58
2022/03/25 03:19:31;;;;;;;117.75;47.92;;;3.70;99.90;;;;;;5071893;28;21063;-59
2022/03/25 03:21:57;;;;;;;101.90;45.05;;;3.70;99.90;;;;;;5072211;28;20439;-57
2022/03/25 03:24:23;;;;;;;113.28;46.42;;;3.60;99.90;;;;;;5070805;28;20021;-55
2022/03/25 03:26:49;;;;;;;111.15;47.97;;;3.70;99.90;;;;;;5070716;28;20024;-62
2022/03/25 03:29:15;;;;;;;108.65;48.70;;;3.70;99.90;;;;;;5071923;28;20025;-60
2022/03/25 03:31:40;;;;;;;96.75;41.95;;;3.60;99.90;;;;;;5071583;28;20473;-60
2022/03/25 03:34:06;;;;;;;93.78;42.25;;;3.60;99.90;;;;;;5071269;28;20043;-59
2022/03/25 03:36:31;;;;;;;97.82;42.33;;;3.60;99.90;;;;;;5071460;28;20371;-60
2022/03/25 03:38:57;;;;;;;107.72;45.30;;;3.60;99.90;;;;;;5070948;28;20033;-59
2022/03/25 03:41:22;;;;;;;105.00;45.88;;;3.60;99.90;;;;;;5073487;22;20416;-64
2022/03/25 03:43:48;;;;;;;106.05;45.20;;;3.50;99.90;;;;;;5019801;28;20032;-66
2022/03/25 03:46:13;;;;;;;105.60;45.92;;;3.50;99.90;;;;;;5037578;28;20032;-65
2022/03/25 03:48:39;;;;;;;116.10;45.92;;;3.40;99.90;;;;;;5015409;28;20033;-66
2022/03/25 03:51:05;;;;;;;105.72;46.03;;;3.50;99.90;;;;;;5032715;28;20076;-65
2022/03/25 03:53:30;;;;;;;111.72;45.70;;;3.60;99.90;;;;;;5038240;28;20025;-66
2022/03/25 03:55:56;;;;;;;100.55;44.67;;;3.70;99.90;;;;;;5031859;28;20498;-66
2022/03/25 03:58:23;;;;;;;100.28;43.28;;;3.70;99.90;;;;;;5034353;28;20495;-66
2022/03/25 04:00:49;;;;;;;100.38;42.45;;;3.90;99.90;;;;;;5034922;28;20029;-65
2022/03/25 04:03:15;;;;;;;97.05;42.67;;;3.80;99.90;;;;;;5042584;28;20499;-65
2022/03/25 04:05:40;;;;;;;99.38;44.42;;;3.80;99.90;;;;;;5034861;28;20052;-65
2022/03/25 04:08:08;;;;;;;95.10;41.13;;;3.80;99.90;;;;;;5033314;28;20025;-66
2022/03/25 04:10:33;;;;;;;101.28;41.80;;;3.70;99.90;;;;;;5033756;28;20135;-65
2022/03/25 04:12:59;;;;;;;95.00;44.40;;;3.50;99.90;;;;;;5032542;28;20497;-66
2022/03/25 04:15:24;;;;;;;96.63;43.00;;;3.40;99.90;;;;;;5033499;28;20025;-65
2022/03/25 04:17:50;;;;;;;107.63;45.22;;;3.20;99.90;;;;;;5033282;28;20028;-64
2022/03/25 04:20:16;;;;;;;106.15;44.00;;;3.10;99.90;;;;;;5032631;28;20026;-66
2022/03/25 04:22:43;;;;;;;110.88;45.47;;;3.00;99.90;;;;;;5032794;28;20025;-64
2022/03/25 04:25:09;;;;;;;110.57;48.10;;;2.90;99.90;;;;;;5035142;28;20040;-64
2022/03/25 04:27:45;;;;;;;114.97;48.67;;;3.00;99.90;;;;;;5037127;28;20025;-65
2022/03/25 04:30:11;;;;;;;113.38;45.58;;;2.90;99.90;;;;;;5033156;28;20103;-65
2022/03/25 04:32:36;;;;;;;113.85;47.78;;;2.90;99.90;;;;;;5038704;28;20471;-65
2022/03/25 04:35:02;;;;;;;118.70;47.55;;;2.80;99.90;;;;;;5043036;28;20048;-65
2022/03/25 04:37:28;;;;;;;111.93;44.95;;;2.80;99.90;;;;;;5042321;28;20057;-66
2022/03/25 04:39:53;;;;;;;114.32;46.25;;;2.60;99.90;;;;;;5032410;28;20030;-64
2022/03/25 04:42:19;;;;;;;105.55;46.92;;;2.60;99.90;;;;;;5042900;28;20108;-65
2022/03/25 04:44:44;;;;;;;110.07;44.63;;;2.80;99.90;;;;;;5038444;28;20169;-65
2022/03/25 04:47:10;;;;;;;111.53;46.88;;;2.90;99.90;;;;;;5033668;28;20040;-65
2022/03/25 04:49:35;;;;;;;96.05;45.33;;;2.90;99.90;;;;;;5031668;28;20462;-66
2022/03/25 04:52:01;;;;;;;100.55;43.55;;;3.00;99.90;;;;;;5032996;28;20495;-66
2022/03/25 04:54:27;;;;;;;106.45;45.88;;;2.90;99.90;;;;;;5042305;28;20025;-63
2022/03/25 04:56:53;;;;;;;101.57;44.45;;;2.90;99.90;;;;;;5035426;28;20376;-63
2022/03/25 04:59:18;;;;;;;106.70;44.55;;;2.80;99.90;;;;;;5034918;28;20022;-63
2022/03/25 05:01:44;;;;;;;100.32;43.20;;;2.90;99.90;;;;;;5035636;28;20017;-66
2022/03/25 05:04:10;;;;;;;101.97;42.88;;;3.00;99.90;;;;;;5041854;28;20028;-66
2022/03/25 05:06:35;;;;;;;112.97;47.08;;;3.10;99.90;;;;;;5038768;28;20013;-65
2022/03/25 05:09:01;;;;;;;107.72;43.47;;;3.00;99.90;;;;;;5042055;28;20035;-65
2022/03/25 05:11:26;;;;;;;98.97;44.50;;;2.90;99.90;;;;;;5035768;28;20179;-67
2022/03/25 05:13:52;;;;;;;110.97;41.95;;;2.90;99.90;;;;;;5041388;28;20040;-66
2022/03/25 05:16:17;;;;;;;97.13;42.22;;;2.90;99.90;;;;;;5034813;28;20056;-65
2022/03/25 05:18:43;;;;;;;97.75;45.08;;;2.90;99.90;;;;;;5031898;28;20547;-66
2022/03/25 05:21:08;;;;;;;96.90;42.30;;;2.80;99.90;;;;;;5035100;28;20037;-65
2022/03/25 05:23:35;;;;;;;100.57;43.65;;;2.70;99.90;;;;;;5030375;28;20022;-66
2022/03/25 05:26:01;;;;;;;113.20;44.45;;;2.80;99.90;;;;;;5032079;28;20152;-65
2022/03/25 05:28:26;;;;;;;99.95;43.25;;;2.70;99.90;;;;;;5048212;28;20152;-64
2022/03/25 05:30:52;;;;;;;95.47;41.58;;;2.70;99.90;;;;;;5037679;28;20036;-65
2022/03/25 05:33:17;;;;;;;109.78;42.90;;;2.70;99.90;;;;;;5038400;28;20076;-63
2022/03/25 05:35:43;;;;;;;102.32;43.88;;;2.70;99.90;;;;;;5039399;28;20112;-64
2022/03/25 05:38:09;;;;;;;97.10;42.42;;;2.80;99.90;;;;;;5045554;28;20071;-65
2022/03/25 05:40:34;;;;;;;107.35;44.42;;;2.70;99.90;;;;;;5043317;28;20040;-65
2022/03/25 05:43:00;;;;;;;105.35;44.20;;;2.70;99.90;;;;;;5043020;28;20087;-64
2022/03/25 05:45:26;;;;;;;105.20;44.85;;;2.70;99.90;;;;;;5032036;28;20443;-65
2022/03/25 05:47:52;;;;;;;92.63;41.92;;;2.80;99.90;;;;;;5034796;28;20495;-64
2022/03/25 05:50:18;;;;;;;109.85;44.60;;;2.90;99.90;;;;;;5044629;28;20031;-64
2022/03/25 05:52:44;;;;;;;106.53;44.83;;;2.90;99.90;;;;;;5037085;28;20032;-65
2022/03/25 05:55:12;;;;;;;101.18;46.00;;;2.90;99.90;;;;;;5044166;28;20025;-64
2022/03/25 05:57:38;;;;;;;107.70;42.25;;;2.80;99.90;;;;;;5030689;28;20187;-64
2022/03/25 06:00:05;;;;;;;107.05;45.83;;;2.70;99.90;;;;;;5029521;28;20694;-64
2022/03/25 06:02:31;;;;;;;108.63;44.63;;;2.80;99.90;;;;;;5029553;28;20102;-64
2022/03/25 06:04:57;;;;;;;108.90;46.67;;;2.80;99.90;;;;;;5029957;28;20041;-64
2022/03/25 06:07:24;;;;;;;109.25;45.92;;;2.80;99.90;;;;;;5026176;28;20665;-66
2022/03/25 06:09:50;;;;;;;113.60;44.28;;;2.80;99.90;;;;;;5029257;28;20044;-63
2022/03/25 06:12:15;;;;;;;110.97;45.25;;;2.70;99.90;;;;;;5038742;28;20470;-54
2022/03/25 06:14:41;;;;;;;105.82;44.10;;;2.80;99.90;;;;;;5033527;28;20432;-55
2022/03/25 06:17:07;;;;;;;104.53;45.20;;;2.90;99.90;;;;;;5029676;28;20034;-57
2022/03/25 06:19:33;;;;;;;112.28;46.35;;;3.00;99.90;;;;;;5037659;28;20025;-55
2022/03/25 06:21:59;;;;;;;109.20;43.63;;;3.10;99.90;;;;;;5031593;28;20026;-56
2022/03/25 06:24:25;;;;;;;102.88;44.70;;;3.20;99.90;;;;;;5035092;28;20499;-54
2022/03/25 06:26:52;;;;;;;109.00;44.47;;;3.30;99.90;;;;;;5030772;28;20025;-54
2022/03/25 06:29:18;;;;;;;108.95;44.33;;;3.40;99.90;;;;;;5032549;28;20044;-57
2022/03/25 06:31:44;;;;;;;107.43;42.17;;;3.60;99.90;;;;;;5034739;28;20371;-55
2022/03/25 06:34:09;;;;;;;104.75;43.25;;;3.70;99.90;;;;;;5029023;28;20104;-57
2022/03/25 06:36:35;;;;;;;99.80;42.72;;;3.90;99.90;;;;;;5029846;28;20045;-57
2022/03/25 06:39:00;;;;;;;95.15;43.22;;;4.00;99.90;;;;;;5029632;28;20037;-56
2022/03/25 06:41:26;;;;;;;98.60;42.80;;;4.00;99.90;;;;;;5030110;28;20034;-56
2022/03/25 06:43:52;;;;;;;95.75;42.55;;;4.00;99.90;;;;;;5012675;28;20087;-57
2022/03/25 06:46:18;;;;;;;99.43;42.60;;;4.10;99.90;;;;;;5028568;28;20021;-56
2022/03/25 06:48:44;;;;;;;96.35;43.58;;;4.20;99.90;;;;;;5030168;28;20476;-56
2022/03/25 06:51:10;;;;;;;102.30;44.70;;;4.30;99.90;;;;;;5030315;28;20403;-55
2022/03/25 06:53:37;;;;;;;89.20;41.20;;;4.30;99.90;;;;;;5029280;28;20040;-54
2022/03/25 06:56:04;;;;;;;89.25;39.90;;;4.50;99.90;;;;;;5039687;28;20033;-58
2022/03/25 06:58:30;;;;;;;92.82;41.92;;;4.60;99.90;;;;;;5032384;28;20040;-54
2022/03/25 07:00:56;;;;;;;89.00;38.85;;;4.70;99.90;;;;;;5032362;28;20064;-56
2022/03/25 07:03:22;;;;;;;103.13;42.25;;;4.80;99.90;;;;;;5044766;28;20456;-55
2022/03/25 07:05:48;;;;;;;102.18;43.03;;;4.90;99.90;;;;;;5036376;28;20033;-55
2022/03/25 07:08:14;;;;;;;95.28;44.67;;;5.00;99.90;;;;;;5037368;28;20072;-55
2022/03/25 07:10:40;;;;;;;96.75;42.72;;;5.10;99.90;;;;;;5049706;28;20044;-55
2022/03/25 07:13:06;;;;;;;92.40;43.08;;;5.20;99.90;;;;;;5033141;28;20037;-55
2022/03/25 07:15:31;;;;;;;91.40;42.50;;;5.30;99.90;;;;;;5032967;28;20091;-57
2022/03/25 07:17:57;;;;;;;106.47;46.55;;;5.40;99.90;;;;;;5029531;28;20026;-56
2022/03/25 07:20:25;;;;;;;93.18;44.80;;;5.50;99.90;;;;;;5030436;28;20034;-58
2022/03/25 07:22:52;;;;;;;100.35;45.17;;;5.70;99.90;;;;;;5031156;28;20783;-55
2022/03/25 07:25:19;;;;;;;106.43;43.90;;;5.80;99.90;;;;;;5036421;28;20432;-55
2022/03/25 07:27:46;;;;;;;109.13;46.75;;;5.90;99.90;;;;;;5029183;28;20491;-57
2022/03/25 07:30:13;;;;;;;101.18;44.58;;;6.10;99.90;;;;;;5045513;28;20507;-58
2022/03/25 07:32:39;;;;;;;89.05;42.88;;;6.10;99.90;;;;;;5033226;28;20029;-57
2022/03/25 07:35:05;;;;;;;100.60;43.28;;;6.30;99.90;;;;;;5033298;28;20101;-58
2022/03/25 07:37:30;;;;;;;111.78;46.28;;;6.30;99.90;;;;;;5043946;28;20798;-55
2022/03/25 07:39:56;;;;;;;100.28;45.15;;;6.40;99.90;;;;;;5038400;28;20057;-58
2022/03/25 07:42:22;;;;;;;105.28;48.67;;;6.60;99.90;;;;;;5029343;28;20430;-57
2022/03/25 07:44:48;;;;;;;103.15;48.00;;;6.60;99.90;;;;;;5046645;28;20028;-58
2022/03/25 07:47:14;;;;;;;116.72;49.75;;;6.80;99.90;;;;;;5034837;28;20406;-57
2022/03/25 07:49:40;;;;;;;111.55;49.28;;;6.90;99.90;;;;;;5036304;28;20031;-58
2022/03/25 07:52:07;;;;;;;137.98;51.10;;;7.00;99.90;;;;;;5029296;28;20033;-57
2022/03/25 07:54:33;;;;;;;114.30;49.85;;;7.20;99.90;;;;;;5032650;28;20056;-54
2022/03/25 07:56:59;;;;;;;113.97;50.47;;;7.40;99.90;;;;;;5039145;28;20033;-54
2022/03/25 07:59:25;;;;;;;114.93;51.22;;;7.40;99.90;;;;;;5053355;28;20077;-57
2022/03/25 08:01:52;;;;;;;113.68;47.88;;;7.50;99.90;;;;;;5042143;28;20097;-56
2022/03/25 08:04:18;;;;;;;126.05;51.55;;;7.60;99.90;;;;;;5033342;28;20030;-58
2022/03/25 08:06:44;;;;;;;117.10;53.45;;;7.70;99.90;;;;;;5046260;28;20036;-57
2022/03/25 08:09:11;;;;;;;105.70;49.58;;;7.80;99.90;;;;;;5052524;28;20032;-57
2022/03/25 08:11:36;;;;;;;126.75;51.63;;;7.90;99.90;;;;;;5036949;28;20083;-57
2022/03/25 08:14:02;;;;;;;125.28;52.72;;;8.00;99.90;;;;;;5032950;28;20033;-55
2022/03/25 08:16:27;;;;;;;106.15;49.22;;;8.20;99.90;;;;;;5038181;28;20025;-57
2022/03/25 08:18:53;;;;;;;115.15;52.10;;;8.20;99.90;;;;;;5033914;28;20120;-56
2022/03/25 08:21:19;;;;;;;118.53;50.92;;;8.30;99.90;;;;;;5044072;28;20080;-58
2022/03/25 08:29:12;;;;;;;96.38;46.28;;;8.70;99.90;;;;;;5027849;28;20060;-54
2022/03/25 08:31:38;;;;;;;107.20;48.80;;;8.80;99.90;;;;;;5032536;28;20037;-58
2022/03/25 08:34:07;;;;;;;108.35;49.50;;;8.90;99.90;;;;;;5032549;28;20026;-57
2022/03/25 08:36:33;;;;;;;114.28;52.58;;;9.00;99.90;;;;;;5039390;28;20451;-57
2022/03/25 08:38:59;;;;;;;108.45;50.75;;;9.10;99.90;;;;;;5052182;28;20115;-54
2022/03/25 08:41:25;;;;;;;125.47;50.53;;;9.20;99.90;;;;;;5026451;28;20117;-57
2022/03/25 08:43:51;;;;;;;116.10;50.22;;;9.30;99.90;;;;;;5033815;28;20032;-57
2022/03/25 08:46:19;;;;;;;116.28;49.10;;;9.40;99.90;;;;;;5038383;28;20021;-56
2022/03/25 08:48:45;;;;;;;106.78;47.80;;;9.60;99.90;;;;;;5052194;28;20040;-56
2022/03/25 08:51:11;;;;;;;109.20;50.58;;;9.70;99.90;;;;;;5043258;28;20561;-55
2022/03/25 08:53:36;;;;;;;108.60;47.55;;;9.80;99.90;;;;;;5032550;28;20037;-54
2022/03/25 08:56:02;;;;;;;104.05;48.63;;;10.00;99.90;;;;;;5036659;28;20033;-57
2022/03/25 08:58:28;;;;;;;106.45;48.10;;;10.20;99.90;;;;;;5045432;28;20025;-58
2022/03/25 09:00:53;;;;;;;102.07;47.72;;;10.30;99.90;;;;;;5032311;28;20030;-55
2022/03/25 09:03:19;;;;;;;98.75;47.08;;;10.50;99.90;;;;;;5032613;28;20057;-56
2022/03/25 09:05:44;;;;;;;110.97;48.30;;;10.60;99.90;;;;;;5031763;28;20555;-53
2022/03/25 09:08:10;;;;;;;103.75;47.10;;;10.80;99.90;;;;;;5034077;28;20442;-57
2022/03/25 09:10:35;;;;;;;117.10;48.53;;;10.90;99.90;;;;;;5036995;28;20523;-57
2022/03/25 09:13:01;;;;;;;103.20;48.40;;;11.10;99.90;;;;;;5032158;28;20403;-55
2022/03/25 09:15:27;;;;;;;98.70;46.88;;;11.20;99.90;;;;;;5032135;28;20418;-55
2022/03/25 09:17:52;;;;;;;103.82;49.13;;;11.30;99.90;;;;;;5047445;28;20082;-56
2022/03/25 09:20:19;;;;;;;98.25;47.95;;;11.50;99.90;;;;;;5044347;28;20507;-56
2022/03/25 09:22:44;;;;;;;99.05;49.00;;;11.70;99.90;;;;;;5025162;28;20103;-57
2022/03/25 09:25:12;;;;;;;96.15;46.53;;;11.90;99.90;;;;;;5031811;28;20034;-56
2022/03/25 09:27:39;;;;;;;103.35;46.80;;;12.10;99.90;;;;;;5032140;28;20083;-55
2022/03/25 09:30:05;;;;;;;106.90;48.25;;;12.30;99.90;;;;;;5043446;28;20025;-56
2022/03/25 09:32:31;;;;;;;92.80;43.78;;;12.50;99.90;;;;;;5032004;28;20487;-55
2022/03/25 09:35:09;;;;;;;88.30;43.30;;;12.60;99.90;;;;;;5028889;28;20124;-58
2022/03/25 09:37:55;;;;;;;111.68;47.38;;;12.80;99.90;;;;;;5043684;28;20047;-58
2022/03/25 09:40:23;;;;;;;93.55;42.92;;;12.90;99.90;;;;;;5042527;28;20047;-55
2022/03/25 09:42:51;;;;;;;90.03;42.88;;;13.10;99.90;;;;;;5070056;22;20049;-62
2022/03/25 09:45:18;;;;;;;88.53;44.00;;;13.30;99.90;;;;;;5056156;28;20028;-62
2022/03/25 09:47:45;;;;;;;97.15;44.65;;;13.50;99.90;;;;;;5050496;28;20055;-62
2022/03/25 09:50:14;;;;;;;97.20;43.92;;;13.70;99.90;;;;;;5060955;28;20039;-62
2022/03/25 09:52:43;;;;;;;78.78;40.22;;;14.00;99.90;;;;;;5064696;28;20033;-62
2022/03/25 09:55:09;;;;;;;77.28;37.92;;;14.10;99.90;;;;;;5052115;28;20479;-59
2022/03/25 09:57:35;;;;;;;83.07;39.28;;;14.20;99.90;;;;;;5050708;28;20441;-62
2022/03/25 10:00:01;;;;;;;84.15;39.78;;;14.20;99.90;;;;;;5050392;28;20090;-61
2022/03/25 10:02:26;;;;;;;89.45;41.30;;;14.30;99.90;;;;;;5054545;28;20403;-61
2022/03/25 10:04:53;;;;;;;81.47;39.80;;;14.50;99.90;;;;;;5070309;28;20021;-62
2022/03/25 10:07:23;;;;;;;82.20;38.95;;;14.70;99.90;;;;;;5070430;28;20072;-61
2022/03/25 10:10:11;;;;;;;82.70;40.88;;;15.00;99.90;;;;;;5052299;28;20543;-60
2022/03/25 10:12:38;;;;;;;69.43;35.42;;;15.20;99.90;;;;;;5047177;28;20487;-61
2022/03/25 10:15:21;;;;;;;71.57;34.25;;;15.20;99.90;;;;;;5059036;28;20032;-63
2022/03/25 10:17:55;;;;;;;68.40;33.03;;;15.30;99.90;;;;;;5067254;28;20559;-63
2022/03/25 10:20:24;;;;;;;65.88;33.85;;;15.60;99.90;;;;;;5066212;28;20158;-60
2022/03/25 10:23:18;;;;;;;77.10;32.88;;;15.90;99.90;;;;;;5070118;28;20020;-62
2022/03/25 10:25:47;;;;;;;67.57;34.83;;;16.10;99.90;;;;;;5064436;28;20028;-62
2022/03/25 10:28:40;;;;;;;73.55;33.15;;;16.20;99.90;;;;;;5064465;28;20398;-62
2022/03/25 10:34:00;;;;;;;60.75;30.02;;;16.30;99.90;;;;;;5068034;28;20039;-59
2022/03/25 10:36:26;;;;;;;58.42;30.60;;;16.40;99.90;;;;;;5063526;28;20021;-61
2022/03/25 10:39:01;;;;;;;61.65;29.83;;;16.60;99.90;;;;;;5050819;28;20021;-62
2022/03/25 10:41:45;;;;;;;61.33;28.23;;;16.90;99.90;;;;;;5049962;28;20021;-62
2022/03/25 10:44:11;;;;;;;62.25;30.38;;;16.80;99.90;;;;;;5059786;28;20079;-60
2022/03/25 10:46:41;;;;;;;55.22;26.50;;;17.00;99.90;;;;;;5051600;28;20048;-62
2022/03/25 10:49:09;;;;;;;42.20;23.38;;;17.30;99.90;;;;;;5060566;28;20023;-62
2022/03/25 10:51:37;;;;;;;54.17;25.70;;;17.50;99.90;;;;;;5069813;28;20082;-63
2022/03/25 10:54:07;;;;;;;53.28;23.90;;;17.70;99.90;;;;;;5065794;28;20055;-62
2022/03/25 10:56:42;;;;;;;56.33;25.80;;;17.40;99.70;;;;;;5054287;28;20029;-63
2022/03/25 10:59:25;;;;;;;60.97;26.33;;;17.40;99.90;;;;;;5054351;28;20367;-63
2022/03/25 11:01:52;;;;;;;55.15;22.58;;;17.70;99.90;;;;;;5058609;28;20514;-62
2022/03/25 11:04:18;;;;;;;35.42;17.33;;;17.90;99.90;;;;;;5052232;28;20502;-64
2022/03/25 11:06:48;;;;;;;28.48;11.88;;;18.30;99.90;;;;;;5035217;28;20111;-62
2022/03/25 11:09:15;;;;;;;30.77;7.75;;;18.60;95.40;;;;;;5051922;28;20029;-62
2022/03/25 11:11:43;;;;;;;22.20;6.63;;;18.50;93.20;;;;;;5047706;28;20034;-61
2022/03/25 11:14:09;;;;;;;20.38;6.38;;;18.50;93.30;;;;;;5050453;28;20112;-62
2022/03/25 11:16:51;;;;;;;11.57;5.60;;;18.50;91.40;;;;;;5049549;28;20076;-62
2022/03/25 11:19:17;;;;;;;25.00;7.82;;;18.50;91.30;;;;;;5054272;28;20116;-62
2022/03/25 11:21:45;;;;;;;17.50;7.88;;;18.50;90.60;;;;;;5050161;28;20509;-61
2022/03/25 11:24:20;;;;;;;22.70;8.18;;;18.60;91.80;;;;;;5048972;28;20177;-63
2022/03/25 11:26:49;;;;;;;26.08;8.05;;;18.60;89.10;;;;;;5047323;28;20406;-62
2022/03/25 11:29:17;;;;;;;19.45;8.05;;;18.40;88.50;;;;;;5050265;28;20552;-62
2022/03/25 11:32:06;;;;;;;16.63;7.22;;;18.30;86.50;;;;;;5046318;28;20034;-62
2022/03/25 11:34:32;;;;;;;24.40;7.38;;;18.10;87.40;;;;;;5051328;28;20060;-62
2022/03/25 11:37:18;;;;;;;18.23;7.82;;;18.40;87.70;;;;;;5048264;28;20533;-62
2022/03/25 11:39:43;;;;;;;28.27;9.75;;;18.60;85.70;;;;;;5050456;28;20037;-62
2022/03/25 11:42:36;;;;;;;26.17;9.20;;;18.80;88.30;;;;;;5052013;28;20099;-63
2022/03/25 11:45:20;;;;;;;25.83;9.95;;;19.10;85.70;;;;;;5050659;28;20079;-62
2022/03/25 11:48:07;;;;;;;24.23;8.60;;;19.00;85.60;;;;;;5051731;28;20021;-62
2022/03/25 11:50:34;;;;;;;32.33;9.70;;;19.00;85.20;;;;;;5041338;28;20039;-62
2022/03/25 11:53:12;;;;;;;28.73;9.38;;;19.20;83.50;;;;;;5051515;28;20391;-63
2022/03/25 11:55:59;;;;;;;25.38;9.13;;;19.30;88.70;;;;;;5054981;28;20715;-63
2022/03/25 11:58:26;;;;;;;21.83;9.20;;;19.50;86.00;;;;;;5059711;28;20033;-63
2022/03/25 12:01:02;;;;;;;29.65;10.73;;;19.70;88.30;;;;;;5055693;28;20017;-62
2022/03/25 12:03:49;;;;;;;30.08;9.82;;;19.70;82.10;;;;;;5053486;28;20024;-62
2022/03/25 12:06:19;;;;;;;26.73;8.77;;;19.60;82.80;;;;;;5063627;28;20017;-61
2022/03/25 12:09:08;;;;;;;21.73;9.52;;;19.50;82.00;;;;;;5072083;28;20136;-63
2022/03/25 12:11:50;;;;;;;25.30;10.07;;;19.60;80.90;;;;;;5062707;28;20410;-62
2022/03/25 12:14:31;;;;;;;28.17;10.07;;;19.60;81.80;;;;;;5060853;28;20024;-63
2022/03/25 12:16:57;;;;;;;24.88;11.35;;;19.90;81.30;;;;;;5034838;28;20491;-62
2022/03/25 12:19:28;;;;;;;22.23;10.80;;;20.00;79.80;;;;;;5052568;28;20052;-62
2022/03/25 12:21:56;;;;;;;31.58;11.00;;;20.00;79.90;;;;;;5048096;28;20033;-62
2022/03/25 12:24:22;;;;;;;29.90;11.23;;;20.10;80.10;;;;;;5061720;28;20025;-61
2022/03/25 12:27:02;;;;;;;29.50;10.77;;;20.30;79.00;;;;;;5056502;28;20108;-62
2022/03/25 12:29:36;;;;;;;22.30;9.82;;;20.40;80.40;;;;;;5046523;28;20021;-63
2022/03/25 12:32:06;;;;;;;29.40;10.98;;;20.70;81.80;;;;;;5051486;28;20021;-63
2022/03/25 12:34:44;;;;;;;26.90;10.48;;;20.80;77.30;;;;;;5055966;28;20113;-62
2022/03/25 12:37:11;;;;;;;34.13;12.93;;;20.80;77.80;;;;;;5058037;28;20013;-63
2022/03/25 12:39:37;;;;;;;29.70;13.60;;;20.70;75.50;;;;;;5052552;28;20039;-63
2022/03/25 12:42:12;;;;;;;30.63;12.40;;;20.20;76.30;;;;;;5052201;28;20500;-62